This is the latest recevied weather packets stored in our database for station/object W5HKR. If no packets are shown the sender has not sent any weather packets the latest 10 day(s).
| Time | Temp. | Humidity | Pressure | Rain* | Wind** | Luminosity | Snow |
|---|---|---|---|---|---|---|---|
| 1777612953 | 19.44° C | 86% | 983.1 hPa | 0 mm | - | - | - |
| 1777612701 | 19.44° C | 86% | 983.4 hPa | 0 mm | - | - | - |
| 1777612402 | 18.33° C | 91% | 990.6 hPa | 0 mm | - | - | - |
| 1777612103 | 19.44° C | 86% | 983.4 hPa | 0 mm | - | - | - |
| 1777611873 | 19.44° C | 86% | 982.8 hPa | 0 mm | - | - | - |
| 1777611800 | 19.44° C | 86% | 983 hPa | 0 mm | - | - | - |
| 1777611501 | 18.33° C | 91% | 990.6 hPa | 0 mm | - | - | - |
| 1777611201 | 19.44° C | 86% | 983.2 hPa | 0 mm | - | - | - |
| 1777610902 | 18.33° C | 91% | 990.6 hPa | 0 mm | - | - | - |
| 1777610792 | 19.44° C | 86% | 982.8 hPa | 0 mm | - | - | - |
| 1777610601 | 19.44° C | 86% | 982.7 hPa | 0 mm | - | - | - |
| 1777610301 | 19.44° C | 86% | 982.5 hPa | 0 mm | - | - | - |
| 1777610003 | 18.33° C | 91% | 990.6 hPa | 0 mm | - | - | - |
| 1777609702 | 20° C | 86% | 983.9 hPa | 0 mm | - | - | - |
| 1777609402 | 18.33° C | 91% | 990.6 hPa | 0 mm | - | - | - |
| 1777609102 | 18.33° C | 91% | 990.6 hPa | 0 mm | - | - | - |
| 1777608802 | 20° C | 87% | 984 hPa | 0 mm | - | - | - |
| 1777608634 | 18.33° C | 91% | 990.6 hPa | 0 mm | - | - | - |
| 1777608502 | 20° C | 86% | 983.9 hPa | 0 mm | - | - | - |
| 1777608202 | 18.33° C | 91% | 990.6 hPa | 0 mm | - | - | - |
| 1777607901 | 18.33° C | 91% | 990.6 hPa | 0 mm | - | - | - |
| 1777607602 | 18.33° C | 91% | 990.6 hPa | 0 mm | - | - | - |
| 1777607553 | 18.33° C | 91% | 990.6 hPa | 0 mm | - | - | - |
| 1777607301 | 18.33° C | 91% | 990.6 hPa | 0 mm | - | - | - |
| 1777607002 | 20.56° C | 83% | 984.4 hPa | 0 mm | - | - | - |
* Rain latest hour (hover to see other rain measurements)
** Current wind speed in m/s (hover to see current wind gust speed)